sensor_id;sensor_type;location;lat;lon;timestamp;pressure;altitude;pressure_sealevel;temperature;humidity
73936;BME280;62287;50.858;0.252;2023-07-31T00:00:08;100934.61;;;19.65;42.04
73936;BME280;62287;50.858;0.252;2023-07-31T00:00:39;100936.06;;;19.71;42.08
73936;BME280;62287;50.858;0.252;2023-07-31T00:01:10;100937.86;;;20.06;41.67
73936;BME280;62287;50.858;0.252;2023-07-31T00:01:42;100939.09;;;20.53;41.48
73936;BME280;62287;50.858;0.252;2023-07-31T00:02:13;100933.72;;;20.35;41.45
73936;BME280;62287;50.858;0.252;2023-07-31T00:02:44;100935.33;;;20.32;41.61
73936;BME280;62287;50.858;0.252;2023-07-31T00:03:15;100939.03;;;19.72;41.61
73936;BME280;62287;50.858;0.252;2023-07-31T00:03:46;100940.12;;;20.29;41.52
73936;BME280;62287;50.858;0.252;2023-07-31T00:04:17;100931.49;;;20.43;41.34
73936;BME280;62287;50.858;0.252;2023-07-31T00:04:48;100935.68;;;20.29;41.51
73936;BME280;62287;50.858;0.252;2023-07-31T00:05:19;100932.80;;;19.31;41.78
73936;BME280;62287;50.858;0.252;2023-07-31T00:05:50;100929.54;;;19.53;42.11
73936;BME280;62287;50.858;0.252;2023-07-31T00:06:21;100933.54;;;20.39;41.69
73936;BME280;62287;50.858;0.252;2023-07-31T00:06:52;100933.85;;;20.33;41.46
73936;BME280;62287;50.858;0.252;2023-07-31T00:07:23;100925.55;;;20.34;41.48
73936;BME280;62287;50.858;0.252;2023-07-31T00:07:54;100939.41;;;20.52;41.69
73936;BME280;62287;50.858;0.252;2023-07-31T00:08:25;100932.41;;;20.04;41.56
73936;BME280;62287;50.858;0.252;2023-07-31T00:08:56;100927.11;;;20.69;41.66
73936;BME280;62287;50.858;0.252;2023-07-31T00:09:27;100936.70;;;20.47;41.77
73936;BME280;62287;50.858;0.252;2023-07-31T00:09:58;100934.38;;;20.12;41.51
73936;BME280;62287;50.858;0.252;2023-07-31T00:10:29;100930.44;;;20.36;41.55
73936;BME280;62287;50.858;0.252;2023-07-31T00:11:00;100932.71;;;20.10;41.77
73936;BME280;62287;50.858;0.252;2023-07-31T00:11:31;100936.78;;;20.27;41.79
73936;BME280;62287;50.858;0.252;2023-07-31T00:12:02;100934.38;;;20.44;41.87
73936;BME280;62287;50.858;0.252;2023-07-31T00:12:33;100932.88;;;20.26;41.78
73936;BME280;62287;50.858;0.252;2023-07-31T00:13:04;100925.87;;;20.42;41.64
73936;BME280;62287;50.858;0.252;2023-07-31T00:13:35;100919.81;;;20.44;41.58
73936;BME280;62287;50.858;0.252;2023-07-31T00:14:06;100930.32;;;20.53;41.51
73936;BME280;62287;50.858;0.252;2023-07-31T00:14:37;100928.91;;;20.46;41.55
73936;BME280;62287;50.858;0.252;2023-07-31T00:15:09;100922.67;;;20.06;41.57
73936;BME280;62287;50.858;0.252;2023-07-31T00:15:40;100923.79;;;20.83;41.73
73936;BME280;62287;50.858;0.252;2023-07-31T00:16:11;100925.91;;;20.54;41.65
73936;BME280;62287;50.858;0.252;2023-07-31T00:16:42;100923.75;;;20.32;41.74
73936;BME280;62287;50.858;0.252;2023-07-31T00:17:13;100918.63;;;20.52;41.50
73936;BME280;62287;50.858;0.252;2023-07-31T00:17:44;100921.72;;;20.59;41.78
73936;BME280;62287;50.858;0.252;2023-07-31T00:18:15;100923.02;;;20.38;41.55
73936;BME280;62287;50.858;0.252;2023-07-31T00:18:46;100921.17;;;20.40;41.48
73936;BME280;62287;50.858;0.252;2023-07-31T00:19:17;100921.63;;;20.29;41.80
73936;BME280;62287;50.858;0.252;2023-07-31T00:19:48;100919.32;;;19.81;41.88
73936;BME280;62287;50.858;0.252;2023-07-31T00:20:19;100919.01;;;19.86;41.91
73936;BME280;62287;50.858;0.252;2023-07-31T00:20:50;100920.26;;;20.49;41.59
73936;BME280;62287;50.858;0.252;2023-07-31T00:21:21;100923.02;;;20.89;41.52
73936;BME280;62287;50.858;0.252;2023-07-31T00:21:52;100919.17;;;20.49;41.60
73936;BME280;62287;50.858;0.252;2023-07-31T00:22:23;100918.81;;;20.07;41.85
73936;BME280;62287;50.858;0.252;2023-07-31T00:22:53;100922.73;;;20.00;41.72
73936;BME280;62287;50.858;0.252;2023-07-31T00:23:24;100921.48;;;20.50;41.58
73936;BME280;62287;50.858;0.252;2023-07-31T00:23:56;100917.55;;;20.24;41.46
73936;BME280;62287;50.858;0.252;2023-07-31T00:24:27;100915.80;;;20.76;41.59
73936;BME280;62287;50.858;0.252;2023-07-31T00:24:58;100922.83;;;20.21;41.52
73936;BME280;62287;50.858;0.252;2023-07-31T00:25:29;100916.25;;;20.64;41.32
73936;BME280;62287;50.858;0.252;2023-07-31T00:26:00;100911.59;;;20.27;41.36
73936;BME280;62287;50.858;0.252;2023-07-31T00:26:31;100909.24;;;20.75;41.32
73936;BME280;62287;50.858;0.252;2023-07-31T00:27:02;100918.61;;;20.81;41.24
73936;BME280;62287;50.858;0.252;2023-07-31T00:27:33;100908.66;;;20.44;41.13
73936;BME280;62287;50.858;0.252;2023-07-31T00:28:05;100914.13;;;20.74;41.16
73936;BME280;62287;50.858;0.252;2023-07-31T00:28:36;100915.42;;;20.31;41.16
73936;BME280;62287;50.858;0.252;2023-07-31T00:29:07;100913.26;;;21.06;40.97
73936;BME280;62287;50.858;0.252;2023-07-31T00:29:38;100910.64;;;21.13;40.69
73936;BME280;62287;50.858;0.252;2023-07-31T00:30:10;100907.19;;;21.33;40.44
73936;BME280;62287;50.858;0.252;2023-07-31T00:30:41;100909.20;;;21.47;40.35
73936;BME280;62287;50.858;0.252;2023-07-31T00:31:12;100912.20;;;21.18;40.16
73936;BME280;62287;50.858;0.252;2023-07-31T00:31:44;100909.52;;;20.97;40.27
73936;BME280;62287;50.858;0.252;2023-07-31T00:32:15;100907.29;;;21.16;40.28
73936;BME280;62287;50.858;0.252;2023-07-31T00:32:46;100902.04;;;20.71;40.32
73936;BME280;62287;50.858;0.252;2023-07-31T00:33:17;100907.61;;;20.74;40.37
73936;BME280;62287;50.858;0.252;2023-07-31T00:33:48;100898.09;;;20.59;40.50
73936;BME280;62287;50.858;0.252;2023-07-31T00:34:19;100902.87;;;20.62;40.50
73936;BME280;62287;50.858;0.252;2023-07-31T00:34:50;100902.12;;;20.66;40.90
73936;BME280;62287;50.858;0.252;2023-07-31T00:35:21;100894.80;;;20.13;41.31
73936;BME280;62287;50.858;0.252;2023-07-31T00:35:52;100900.36;;;19.93;41.30
73936;BME280;62287;50.858;0.252;2023-07-31T00:36:23;100890.42;;;20.51;41.07
73936;BME280;62287;50.858;0.252;2023-07-31T00:36:55;100892.19;;;19.94;40.94
73936;BME280;62287;50.858;0.252;2023-07-31T00:37:25;100898.18;;;20.62;40.97
73936;BME280;62287;50.858;0.252;2023-07-31T00:37:58;100897.02;;;21.02;40.95
73936;BME280;62287;50.858;0.252;2023-07-31T00:38:29;100893.18;;;20.81;40.79
73936;BME280;62287;50.858;0.252;2023-07-31T00:39:00;100887.89;;;20.45;41.13
73936;BME280;62287;50.858;0.252;2023-07-31T00:39:31;100892.03;;;19.63;41.50
73936;BME280;62287;50.858;0.252;2023-07-31T00:40:08;100892.38;;;19.49;41.53
73936;BME280;62287;50.858;0.252;2023-07-31T00:40:39;100902.52;;;20.06;41.61
73936;BME280;62287;50.858;0.252;2023-07-31T00:41:10;100896.48;;;20.48;41.24
73936;BME280;62287;50.858;0.252;2023-07-31T00:41:40;100892.49;;;20.70;41.09
73936;BME280;62287;50.858;0.252;2023-07-31T00:42:16;100896.99;;;20.74;40.98
73936;BME280;62287;50.858;0.252;2023-07-31T00:42:47;100900.27;;;20.45;41.16
73936;BME280;62287;50.858;0.252;2023-07-31T00:43:18;100893.86;;;20.64;41.08
73936;BME280;62287;50.858;0.252;2023-07-31T00:43:49;100895.23;;;20.09;41.18
73936;BME280;62287;50.858;0.252;2023-07-31T00:44:21;100894.01;;;20.58;41.04
73936;BME280;62287;50.858;0.252;2023-07-31T00:44:51;100891.67;;;20.52;41.13
73936;BME280;62287;50.858;0.252;2023-07-31T00:45:23;100894.90;;;20.50;41.13
73936;BME280;62287;50.858;0.252;2023-07-31T00:45:54;100876.90;;;19.94;41.46
73936;BME280;62287;50.858;0.252;2023-07-31T00:46:25;100894.42;;;20.21;41.39
73936;BME280;62287;50.858;0.252;2023-07-31T00:46:56;100889.68;;;20.04;41.28
73936;BME280;62287;50.858;0.252;2023-07-31T00:47:28;100894.32;;;20.52;41.24
73936;BME280;62287;50.858;0.252;2023-07-31T00:47:59;100889.08;;;20.49;41.42
73936;BME280;62287;50.858;0.252;2023-07-31T00:48:31;100893.32;;;20.31;41.31
73936;BME280;62287;50.858;0.252;2023-07-31T00:49:03;100888.55;;;20.12;41.18
73936;BME280;62287;50.858;0.252;2023-07-31T00:49:34;100889.17;;;20.15;41.13
73936;BME280;62287;50.858;0.252;2023-07-31T00:50:07;100895.57;;;20.43;41.20
73936;BME280;62287;50.858;0.252;2023-07-31T00:50:39;100888.77;;;19.99;41.72
73936;BME280;62287;50.858;0.252;2023-07-31T00:51:10;100890.73;;;20.60;41.37
73936;BME280;62287;50.858;0.252;2023-07-31T00:51:41;100889.72;;;19.76;41.44
73936;BME280;62287;50.858;0.252;2023-07-31T00:52:12;100882.44;;;20.45;41.48
73936;BME280;62287;50.858;0.252;2023-07-31T00:52:43;100886.48;;;20.45;41.45
73936;BME280;62287;50.858;0.252;2023-07-31T00:53:14;100884.16;;;20.21;41.50
73936;BME280;62287;50.858;0.252;2023-07-31T00:53:47;100880.46;;;20.49;41.27
73936;BME280;62287;50.858;0.252;2023-07-31T00:54:18;100888.55;;;20.31;41.31
73936;BME280;62287;50.858;0.252;2023-07-31T00:54:49;100883.18;;;20.00;41.48
73936;BME280;62287;50.858;0.252;2023-07-31T00:55:21;100881.21;;;20.43;41.55
73936;BME280;62287;50.858;0.252;2023-07-31T00:55:52;100880.52;;;20.17;41.41
73936;BME280;62287;50.858;0.252;2023-07-31T00:56:24;100884.22;;;20.29;41.35
73936;BME280;62287;50.858;0.252;2023-07-31T00:56:56;100888.81;;;20.32;41.35
73936;BME280;62287;50.858;0.252;2023-07-31T00:57:28;100882.53;;;20.00;41.30
73936;BME280;62287;50.858;0.252;2023-07-31T00:57:59;100878.23;;;20.34;41.34
73936;BME280;62287;50.858;0.252;2023-07-31T00:58:30;100883.58;;;20.63;41.32
73936;BME280;62287;50.858;0.252;2023-07-31T00:59:01;100888.47;;;20.36;41.36
73936;BME280;62287;50.858;0.252;2023-07-31T00:59:32;100878.34;;;20.56;41.42
73936;BME280;62287;50.858;0.252;2023-07-31T01:00:04;100888.20;;;20.50;41.48
73936;BME280;62287;50.858;0.252;2023-07-31T01:00:35;100888.43;;;20.35;41.24
73936;BME280;62287;50.858;0.252;2023-07-31T01:01:06;100890.79;;;20.42;41.22
73936;BME280;62287;50.858;0.252;2023-07-31T01:01:37;100884.26;;;20.43;41.21
73936;BME280;62287;50.858;0.252;2023-07-31T01:02:09;100879.95;;;20.47;41.08
73936;BME280;62287;50.858;0.252;2023-07-31T01:02:40;100883.33;;;19.96;41.44
73936;BME280;62287;50.858;0.252;2023-07-31T01:03:17;100886.47;;;20.13;41.40
73936;BME280;62287;50.858;0.252;2023-07-31T01:03:49;100881.86;;;20.68;41.17
73936;BME280;62287;50.858;0.252;2023-07-31T01:04:21;100886.67;;;19.93;41.09
73936;BME280;62287;50.858;0.252;2023-07-31T01:04:53;100884.85;;;20.01;41.11
73936;BME280;62287;50.858;0.252;2023-07-31T01:05:31;100881.50;;;20.36;41.43
73936;BME280;62287;50.858;0.252;2023-07-31T01:06:13;100886.71;;;20.28;41.17
73936;BME280;62287;50.858;0.252;2023-07-31T01:06:51;100883.83;;;20.22;41.14
73936;BME280;62287;50.858;0.252;2023-07-31T01:07:30;100881.76;;;20.87;41.00
73936;BME280;62287;50.858;0.252;2023-07-31T01:08:05;100879.62;;;20.18;41.19
73936;BME280;62287;50.858;0.252;2023-07-31T01:08:44;100874.36;;;20.41;41.35
73936;BME280;62287;50.858;0.252;2023-07-31T01:09:28;100874.21;;;19.96;41.22
73936;BME280;62287;50.858;0.252;2023-07-31T01:10:04;100877.78;;;20.32;41.04
73936;BME280;62287;50.858;0.252;2023-07-31T01:10:44;100869.46;;;20.19;40.93
73936;BME280;62287;50.858;0.252;2023-07-31T01:11:19;100870.45;;;20.49;40.79
73936;BME280;62287;50.858;0.252;2023-07-31T01:11:55;100868.76;;;20.78;40.83
73936;BME280;62287;50.858;0.252;2023-07-31T01:12:27;100866.52;;;19.88;40.96
73936;BME280;62287;50.858;0.252;2023-07-31T01:12:59;100865.25;;;20.39;41.17
73936;BME280;62287;50.858;0.252;2023-07-31T01:13:30;100865.98;;;19.85;41.14
73936;BME280;62287;50.858;0.252;2023-07-31T01:14:01;100859.33;;;19.75;41.46
73936;BME280;62287;50.858;0.252;2023-07-31T01:14:32;100857.91;;;19.49;41.71
73936;BME280;62287;50.858;0.252;2023-07-31T01:15:05;100859.57;;;19.88;41.51
73936;BME280;62287;50.858;0.252;2023-07-31T01:15:37;100855.22;;;19.96;41.50
73936;BME280;62287;50.858;0.252;2023-07-31T01:16:08;100856.99;;;20.03;41.27
73936;BME280;62287;50.858;0.252;2023-07-31T01:16:39;100852.36;;;20.22;41.52
73936;BME280;62287;50.858;0.252;2023-07-31T01:17:09;100854.26;;;20.04;41.44
73936;BME280;62287;50.858;0.252;2023-07-31T01:17:41;100859.28;;;20.08;41.69
73936;BME280;62287;50.858;0.252;2023-07-31T01:18:12;100853.54;;;19.93;41.45
73936;BME280;62287;50.858;0.252;2023-07-31T01:18:43;100854.20;;;19.92;41.46
73936;BME280;62287;50.858;0.252;2023-07-31T01:19:15;100848.11;;;20.02;41.33
73936;BME280;62287;50.858;0.252;2023-07-31T01:19:49;100851.54;;;20.45;41.27
73936;BME280;62287;50.858;0.252;2023-07-31T01:20:23;100846.98;;;19.82;41.44
73936;BME280;62287;50.858;0.252;2023-07-31T01:21:02;100842.73;;;20.18;41.27
73936;BME280;62287;50.858;0.252;2023-07-31T01:21:48;100845.68;;;20.30;41.18
73936;BME280;62287;50.858;0.252;2023-07-31T01:22:39;100842.32;;;20.24;41.32
73936;BME280;62287;50.858;0.252;2023-07-31T01:23:32;100845.46;;;20.29;41.45
73936;BME280;62287;50.858;0.252;2023-07-31T01:24:22;100847.71;;;20.33;41.10
73936;BME280;62287;50.858;0.252;2023-07-31T01:25:01;100843.74;;;20.04;41.38
73936;BME280;62287;50.858;0.252;2023-07-31T01:25:47;100837.72;;;19.51;41.53
73936;BME280;62287;50.858;0.252;2023-07-31T01:26:21;100840.29;;;19.84;41.30
73936;BME280;62287;50.858;0.252;2023-07-31T01:26:57;100837.80;;;19.86;41.23
73936;BME280;62287;50.858;0.252;2023-07-31T01:27:30;100836.17;;;20.51;41.17
73936;BME280;62287;50.858;0.252;2023-07-31T01:28:05;100835.72;;;20.33;41.07
73936;BME280;62287;50.858;0.252;2023-07-31T01:28:46;100837.98;;;20.36;41.05
73936;BME280;62287;50.858;0.252;2023-07-31T01:29:26;100824.87;;;20.44;41.03
73936;BME280;62287;50.858;0.252;2023-07-31T01:30:05;100829.80;;;20.46;41.01
73936;BME280;62287;50.858;0.252;2023-07-31T01:30:43;100827.06;;;20.41;40.94
73936;BME280;62287;50.858;0.252;2023-07-31T01:31:20;100825.21;;;20.33;41.07
73936;BME280;62287;50.858;0.252;2023-07-31T01:31:53;100823.97;;;20.37;41.12
73936;BME280;62287;50.858;0.252;2023-07-31T01:32:28;100822.86;;;20.65;41.10
73936;BME280;62287;50.858;0.252;2023-07-31T01:32:59;100817.12;;;19.92;41.20
73936;BME280;62287;50.858;0.252;2023-07-31T01:33:31;100820.53;;;20.17;41.25
73936;BME280;62287;50.858;0.252;2023-07-31T01:34:03;100816.98;;;20.55;41.43
73936;BME280;62287;50.858;0.252;2023-07-31T01:34:35;100820.06;;;19.88;41.24
73936;BME280;62287;50.858;0.252;2023-07-31T01:35:08;100816.43;;;20.49;41.43
73936;BME280;62287;50.858;0.252;2023-07-31T01:35:44;100807.78;;;20.23;41.22
73936;BME280;62287;50.858;0.252;2023-07-31T01:36:15;100817.78;;;20.22;41.14
73936;BME280;62287;50.858;0.252;2023-07-31T01:36:46;100812.32;;;20.29;41.13
73936;BME280;62287;50.858;0.252;2023-07-31T01:37:17;100813.41;;;20.37;41.00
73936;BME280;62287;50.858;0.252;2023-07-31T01:37:48;100802.01;;;20.59;41.24
73936;BME280;62287;50.858;0.252;2023-07-31T01:38:21;100808.03;;;20.24;41.14
73936;BME280;62287;50.858;0.252;2023-07-31T01:38:52;100803.24;;;19.84;41.15
73936;BME280;62287;50.858;0.252;2023-07-31T01:39:23;100803.31;;;20.26;41.09
73936;BME280;62287;50.858;0.252;2023-07-31T01:39:54;100801.22;;;20.01;41.34
73936;BME280;62287;50.858;0.252;2023-07-31T01:40:24;100806.05;;;19.85;41.40
73936;BME280;62287;50.858;0.252;2023-07-31T01:40:55;100800.14;;;20.23;41.38
73936;BME280;62287;50.858;0.252;2023-07-31T01:41:27;100793.47;;;19.34;41.57
73936;BME280;62287;50.858;0.252;2023-07-31T01:41:58;100800.92;;;20.06;41.41
73936;BME280;62287;50.858;0.252;2023-07-31T01:42:29;100799.14;;;20.10;41.25
73936;BME280;62287;50.858;0.252;2023-07-31T01:43:00;100797.84;;;20.50;41.28
73936;BME280;62287;50.858;0.252;2023-07-31T01:43:31;100807.72;;;20.22;41.31
73936;BME280;62287;50.858;0.252;2023-07-31T01:44:02;100786.89;;;20.16;41.33
73936;BME280;62287;50.858;0.252;2023-07-31T01:44:33;100789.51;;;20.38;41.47
73936;BME280;62287;50.858;0.252;2023-07-31T01:45:05;100792.66;;;20.60;41.28
73936;BME280;62287;50.858;0.252;2023-07-31T01:45:36;100799.45;;;20.54;41.26
73936;BME280;62287;50.858;0.252;2023-07-31T01:46:08;100793.70;;;20.30;41.19
73936;BME280;62287;50.858;0.252;2023-07-31T01:46:39;100798.64;;;20.36;41.09
73936;BME280;62287;50.858;0.252;2023-07-31T01:47:10;100788.82;;;20.73;41.03
73936;BME280;62287;50.858;0.252;2023-07-31T01:47:41;100795.62;;;20.64;40.98
73936;BME280;62287;50.858;0.252;2023-07-31T01:48:12;100790.49;;;20.72;40.94
73936;BME280;62287;50.858;0.252;2023-07-31T01:48:43;100789.69;;;20.46;40.92
73936;BME280;62287;50.858;0.252;2023-07-31T01:49:14;100786.73;;;20.50;40.79
73936;BME280;62287;50.858;0.252;2023-07-31T01:49:45;100784.89;;;20.13;40.81
73936;BME280;62287;50.858;0.252;2023-07-31T01:50:16;100790.89;;;20.67;41.03
73936;BME280;62287;50.858;0.252;2023-07-31T01:51:33;100785.53;;;20.70;41.00
73936;BME280;62287;50.858;0.252;2023-07-31T01:52:05;100792.41;;;20.69;40.94
73936;BME280;62287;50.858;0.252;2023-07-31T01:52:36;100775.70;;;19.77;41.06
73936;BME280;62287;50.858;0.252;2023-07-31T01:53:07;100771.60;;;20.03;41.29
73936;BME280;62287;50.858;0.252;2023-07-31T01:53:38;100777.47;;;20.57;41.15
73936;BME280;62287;50.858;0.252;2023-07-31T01:54:09;100776.44;;;20.08;40.93
73936;BME280;62287;50.858;0.252;2023-07-31T01:54:41;100764.74;;;20.74;40.96
73936;BME280;62287;50.858;0.252;2023-07-31T01:55:12;100765.60;;;20.25;40.96
73936;BME280;62287;50.858;0.252;2023-07-31T01:55:43;100773.28;;;20.38;40.88
73936;BME280;62287;50.858;0.252;2023-07-31T01:56:14;100755.57;;;20.54;40.61
73936;BME280;62287;50.858;0.252;2023-07-31T01:56:45;100763.36;;;20.92;40.66
73936;BME280;62287;50.858;0.252;2023-07-31T01:57:16;100758.49;;;20.07;40.66
73936;BME280;62287;50.858;0.252;2023-07-31T01:57:47;100764.67;;;20.40;40.88
73936;BME280;62287;50.858;0.252;2023-07-31T01:58:18;100753.84;;;20.16;40.99
73936;BME280;62287;50.858;0.252;2023-07-31T01:58:49;100752.76;;;20.32;40.90
73936;BME280;62287;50.858;0.252;2023-07-31T01:59:20;100745.56;;;20.68;40.89
73936;BME280;62287;50.858;0.252;2023-07-31T01:59:51;100748.75;;;20.37;40.82
73936;BME280;62287;50.858;0.252;2023-07-31T02:00:22;100753.64;;;20.40;40.80
73936;BME280;62287;50.858;0.252;2023-07-31T02:00:53;100757.76;;;20.46;40.75
73936;BME280;62287;50.858;0.252;2023-07-31T02:01:25;100744.06;;;20.79;40.66
73936;BME280;62287;50.858;0.252;2023-07-31T02:01:56;100752.93;;;20.23;40.90
73936;BME280;62287;50.858;0.252;2023-07-31T02:02:27;100747.05;;;19.69;41.04
73936;BME280;62287;50.858;0.252;2023-07-31T02:02:59;100748.37;;;20.72;40.83
73936;BME280;62287;50.858;0.252;2023-07-31T02:03:30;100752.46;;;20.35;40.73
73936;BME280;62287;50.858;0.252;2023-07-31T02:04:01;100747.79;;;19.93;40.79
73936;BME280;62287;50.858;0.252;2023-07-31T02:04:32;100746.78;;;19.98;41.17
73936;BME280;62287;50.858;0.252;2023-07-31T02:05:04;100749.40;;;20.19;40.91
73936;BME280;62287;50.858;0.252;2023-07-31T02:05:35;100749.45;;;20.53;40.92
73936;BME280;62287;50.858;0.252;2023-07-31T02:06:06;100742.70;;;20.05;41.03
73936;BME280;62287;50.858;0.252;2023-07-31T02:06:38;100746.67;;;20.46;40.97
73936;BME280;62287;50.858;0.252;2023-07-31T02:07:09;100748.92;;;20.14;40.93
73936;BME280;62287;50.858;0.252;2023-07-31T02:07:40;100747.01;;;20.62;40.88
73936;BME280;62287;50.858;0.252;2023-07-31T02:08:12;100742.72;;;20.32;40.78
73936;BME280;62287;50.858;0.252;2023-07-31T02:08:43;100740.73;;;20.32;40.81
73936;BME280;62287;50.858;0.252;2023-07-31T02:09:14;100748.65;;;20.09;40.65
73936;BME280;62287;50.858;0.252;2023-07-31T02:09:45;100745.65;;;20.29;40.72
73936;BME280;62287;50.858;0.252;2023-07-31T02:10:16;100747.03;;;20.68;40.74
73936;BME280;62287;50.858;0.252;2023-07-31T02:10:47;100735.79;;;20.38;40.68
73936;BME280;62287;50.858;0.252;2023-07-31T02:11:18;100744.36;;;20.33;40.72
73936;BME280;62287;50.858;0.252;2023-07-31T02:11:49;100737.97;;;20.31;40.68
73936;BME280;62287;50.858;0.252;2023-07-31T02:12:20;100734.79;;;20.27;40.68
73936;BME280;62287;50.858;0.252;2023-07-31T02:12:52;100730.23;;;20.22;40.76
73936;BME280;62287;50.858;0.252;2023-07-31T02:13:23;100730.31;;;20.44;40.85
73936;BME280;62287;50.858;0.252;2023-07-31T02:13:54;100732.12;;;19.89;41.29
73936;BME280;62287;50.858;0.252;2023-07-31T02:14:25;100735.02;;;19.99;41.05
73936;BME280;62287;50.858;0.252;2023-07-31T02:14:56;100733.83;;;20.18;40.80
73936;BME280;62287;50.858;0.252;2023-07-31T02:15:27;100732.54;;;20.06;40.92
73936;BME280;62287;50.858;0.252;2023-07-31T02:15:59;100728.40;;;20.04;40.91
73936;BME280;62287;50.858;0.252;2023-07-31T02:16:30;100735.97;;;20.27;40.77
73936;BME280;62287;50.858;0.252;2023-07-31T02:17:01;100731.37;;;20.21;40.81
73936;BME280;62287;50.858;0.252;2023-07-31T02:17:32;100731.76;;;20.30;40.75
73936;BME280;62287;50.858;0.252;2023-07-31T02:18:03;100720.07;;;20.20;40.83
73936;BME280;62287;50.858;0.252;2023-07-31T02:18:34;100725.80;;;20.48;40.90
73936;BME280;62287;50.858;0.252;2023-07-31T02:19:05;100727.05;;;20.54;40.75
73936;BME280;62287;50.858;0.252;2023-07-31T02:19:36;100724.08;;;20.26;40.99
73936;BME280;62287;50.858;0.252;2023-07-31T02:20:08;100725.14;;;20.40;40.99
73936;BME280;62287;50.858;0.252;2023-07-31T02:20:39;100717.76;;;20.09;40.84
73936;BME280;62287;50.858;0.252;2023-07-31T02:21:10;100726.99;;;20.53;40.79
73936;BME280;62287;50.858;0.252;2023-07-31T02:21:41;100726.10;;;20.35;40.69
73936;BME280;62287;50.858;0.252;2023-07-31T02:22:12;100722.52;;;20.72;40.57
73936;BME280;62287;50.858;0.252;2023-07-31T02:22:43;100725.11;;;20.29;41.05
73936;BME280;62287;50.858;0.252;2023-07-31T02:23:14;100730.10;;;20.46;40.93
73936;BME280;62287;50.858;0.252;2023-07-31T02:23:45;100725.52;;;20.25;40.75
73936;BME280;62287;50.858;0.252;2023-07-31T02:24:16;100726.07;;;20.19;40.77
73936;BME280;62287;50.858;0.252;2023-07-31T02:24:46;100725.21;;;20.55;40.74
73936;BME280;62287;50.858;0.252;2023-07-31T02:25:18;100724.71;;;20.50;40.80
73936;BME280;62287;50.858;0.252;2023-07-31T02:25:49;100725.91;;;20.16;40.78
73936;BME280;62287;50.858;0.252;2023-07-31T02:26:20;100719.90;;;20.06;40.87
73936;BME280;62287;50.858;0.252;2023-07-31T02:26:50;100723.22;;;19.89;41.12
73936;BME280;62287;50.858;0.252;2023-07-31T02:27:21;100722.91;;;20.25;40.88
73936;BME280;62287;50.858;0.252;2023-07-31T02:27:52;100724.13;;;20.01;40.99
73936;BME280;62287;50.858;0.252;2023-07-31T02:28:23;100725.48;;;20.39;40.97
73936;BME280;62287;50.858;0.252;2023-07-31T02:28:54;100723.68;;;19.95;41.05
73936;BME280;62287;50.858;0.252;2023-07-31T02:29:25;100717.71;;;20.50;40.79
73936;BME280;62287;50.858;0.252;2023-07-31T02:29:56;100715.38;;;20.28;40.73
73936;BME280;62287;50.858;0.252;2023-07-31T02:30:27;100717.18;;;19.81;40.76
73936;BME280;62287;50.858;0.252;2023-07-31T02:30:58;100722.19;;;20.27;40.71
73936;BME280;62287;50.858;0.252;2023-07-31T02:31:29;100718.85;;;20.19;40.64
73936;BME280;62287;50.858;0.252;2023-07-31T02:32:00;100709.71;;;20.65;40.58
73936;BME280;62287;50.858;0.252;2023-07-31T02:32:31;100712.47;;;20.59;40.65
73936;BME280;62287;50.858;0.252;2023-07-31T02:33:03;100702.21;;;19.99;40.81
73936;BME280;62287;50.858;0.252;2023-07-31T02:33:34;100711.02;;;19.83;40.67
73936;BME280;62287;50.858;0.252;2023-07-31T02:34:05;100713.09;;;20.24;40.51
73936;BME280;62287;50.858;0.252;2023-07-31T02:34:36;100708.16;;;20.47;40.36
73936;BME280;62287;50.858;0.252;2023-07-31T02:35:08;100713.30;;;20.81;40.37
73936;BME280;62287;50.858;0.252;2023-07-31T02:35:39;100711.87;;;20.90;40.35
73936;BME280;62287;50.858;0.252;2023-07-31T02:36:09;100714.50;;;20.79;40.39
73936;BME280;62287;50.858;0.252;2023-07-31T02:36:41;100711.21;;;20.88;40.30
73936;BME280;62287;50.858;0.252;2023-07-31T02:37:17;100716.33;;;20.54;40.37
73936;BME280;62287;50.858;0.252;2023-07-31T02:37:48;100713.69;;;20.54;40.34
73936;BME280;62287;50.858;0.252;2023-07-31T02:38:19;100704.65;;;20.64;40.48
73936;BME280;62287;50.858;0.252;2023-07-31T02:38:50;100707.77;;;20.68;40.36
73936;BME280;62287;50.858;0.252;2023-07-31T02:39:21;100704.07;;;20.35;40.41
73936;BME280;62287;50.858;0.252;2023-07-31T02:39:52;100710.33;;;20.28;40.36
73936;BME280;62287;50.858;0.252;2023-07-31T02:40:22;100703.75;;;20.35;40.42
73936;BME280;62287;50.858;0.252;2023-07-31T02:40:54;100704.15;;;20.26;40.49
73936;BME280;62287;50.858;0.252;2023-07-31T02:41:24;100698.92;;;20.01;40.80
73936;BME280;62287;50.858;0.252;2023-07-31T02:41:55;100701.17;;;20.61;40.64
73936;BME280;62287;50.858;0.252;2023-07-31T02:42:26;100694.99;;;20.47;40.68
73936;BME280;62287;50.858;0.252;2023-07-31T02:42:57;100687.63;;;20.41;40.69
73936;BME280;62287;50.858;0.252;2023-07-31T02:43:28;100692.51;;;20.12;40.68
73936;BME280;62287;50.858;0.252;2023-07-31T02:43:59;100693.40;;;20.59;40.60
73936;BME280;62287;50.858;0.252;2023-07-31T02:44:30;100691.66;;;20.56;40.54
73936;BME280;62287;50.858;0.252;2023-07-31T02:45:01;100684.92;;;20.76;40.45
73936;BME280;62287;50.858;0.252;2023-07-31T02:45:32;100693.71;;;20.33;40.51
73936;BME280;62287;50.858;0.252;2023-07-31T02:46:03;100686.57;;;20.35;40.42
73936;BME280;62287;50.858;0.252;2023-07-31T02:46:34;100674.10;;;20.75;40.37
73936;BME280;62287;50.858;0.252;2023-07-31T02:47:05;100677.60;;;20.74;40.36
73936;BME280;62287;50.858;0.252;2023-07-31T02:47:37;100681.37;;;20.00;40.66
73936;BME280;62287;50.858;0.252;2023-07-31T02:48:07;100673.33;;;19.60;41.13